createdAt,value
2022-10-22T00:00:47.543Z,2.25
2022-10-22T00:03:21.750Z,2.63
2022-10-22T00:05:56.007Z,2.80
2022-10-22T00:08:30.192Z,2.65
2022-10-22T00:11:04.707Z,2.17
2022-10-22T00:13:44.471Z,2.50
2022-10-22T00:16:18.830Z,2.47
2022-10-22T00:18:53.045Z,2.88
2022-10-22T00:21:30.157Z,2.58
2022-10-22T00:24:04.588Z,2.70
2022-10-22T00:26:40.665Z,2.33
2022-10-22T00:29:23.877Z,2.35
2022-10-22T00:31:58.107Z,3.42
2022-10-22T00:34:32.369Z,2.30
2022-10-22T00:37:06.593Z,2.58
2022-10-22T00:39:40.872Z,2.75
2022-10-22T00:42:17.674Z,2.58
2022-10-22T00:45:34.008Z,2.03
2022-10-22T00:48:10.436Z,2.10
2022-10-22T00:50:46.804Z,2.80
2022-10-22T00:53:21.817Z,2.95
2022-10-22T00:55:58.111Z,2.17
2022-10-22T00:58:33.197Z,2.70
2022-10-22T01:01:13.162Z,2.60
2022-10-22T01:03:47.367Z,3.15
2022-10-22T01:06:25.222Z,2.42
2022-10-22T01:09:08.944Z,2.72
2022-10-22T01:11:47.376Z,2.58
2022-10-22T01:14:24.098Z,2.63
2022-10-22T01:17:06.340Z,3.05
2022-10-22T01:19:57.901Z,3.97
2022-10-22T01:22:34.606Z,2.60
2022-10-22T01:25:12.905Z,2.92
2022-10-22T01:27:59.311Z,2.40
2022-10-22T01:30:39.023Z,3.63
2022-10-22T01:33:15.303Z,3.13
2022-10-22T01:35:50.363Z,2.92
2022-10-22T01:38:26.180Z,3.40
2022-10-22T01:41:00.324Z,2.75
2022-10-22T01:43:34.819Z,2.50
2022-10-22T01:46:14.267Z,2.90
2022-10-22T01:48:57.503Z,3.30
2022-10-22T01:51:51.158Z,3.70
2022-10-22T01:54:32.795Z,3.30
2022-10-22T01:57:14.581Z,3.15
2022-10-22T01:59:52.955Z,3.17
2022-10-22T02:02:40.039Z,3.42
2022-10-22T02:05:16.390Z,2.72
2022-10-22T02:07:51.939Z,3.47
2022-10-22T02:10:26.621Z,3.10
2022-10-22T02:13:01.385Z,2.90
2022-10-22T02:15:36.001Z,3.63
2022-10-22T02:18:15.885Z,3.03
2022-10-22T02:20:51.557Z,3.38
2022-10-22T02:23:25.932Z,3.90
2022-10-22T02:26:03.207Z,3.80
2022-10-22T02:28:44.131Z,2.97
2022-10-22T02:31:20.779Z,3.38
2022-10-22T02:34:01.440Z,4.03
2022-10-22T02:36:35.602Z,3.55
2022-10-22T02:39:10.096Z,3.03
2022-10-22T02:41:44.502Z,3.78
2022-10-22T02:44:18.615Z,4.27
2022-10-22T02:46:52.713Z,3.80
2022-10-22T02:49:32.263Z,3.35
2022-10-22T02:52:06.629Z,3.13
2022-10-22T02:54:41.127Z,2.83
2022-10-22T02:57:15.423Z,3.05
2022-10-22T02:59:49.555Z,3.80
2022-10-22T03:02:23.871Z,3.08
2022-10-22T03:05:03.495Z,3.55
2022-10-22T03:07:37.878Z,4.10
2022-10-22T03:10:13.116Z,3.95
2022-10-22T03:12:47.278Z,3.28
2022-10-22T03:15:21.692Z,3.95
2022-10-22T03:17:55.825Z,4.00
2022-10-22T03:20:35.427Z,3.50
2022-10-22T03:23:09.811Z,3.95
2022-10-22T03:25:46.261Z,3.27
2022-10-22T03:28:21.320Z,4.28
2022-10-22T03:30:55.606Z,4.28
2022-10-22T03:33:29.866Z,3.80
2022-10-22T03:36:09.250Z,3.72
2022-10-22T03:38:43.616Z,3.33
2022-10-22T03:41:17.831Z,4.25
2022-10-22T03:43:54.163Z,4.55
2022-10-22T03:46:28.467Z,3.53
2022-10-22T03:49:02.736Z,5.53
2022-10-22T03:51:42.524Z,3.90
2022-10-22T03:54:16.713Z,3.85
2022-10-22T03:56:50.850Z,3.83
2022-10-22T03:59:25.087Z,4.75
2022-10-22T04:02:00.783Z,5.55
2022-10-22T04:04:34.869Z,4.05
2022-10-22T04:07:14.559Z,3.50
2022-10-22T04:09:48.588Z,3.90
2022-10-22T04:12:22.717Z,4.13
2022-10-22T04:14:56.785Z,4.18
2022-10-22T04:17:31.176Z,3.63
2022-10-22T04:20:05.332Z,3.73
2022-10-22T04:22:46.074Z,3.70
2022-10-22T04:25:20.227Z,4.43
2022-10-22T04:27:54.307Z,4.13
2022-10-22T04:30:28.854Z,3.28
2022-10-22T04:33:04.663Z,3.85
2022-10-22T04:35:38.706Z,4.15
2022-10-22T04:38:18.428Z,3.72
2022-10-22T04:40:52.573Z,3.92
2022-10-22T04:43:29.678Z,3.88
2022-10-22T04:46:06.627Z,3.58
2022-10-22T04:48:40.949Z,3.90
2022-10-22T04:51:15.576Z,4.07
2022-10-22T04:53:55.229Z,5.00
2022-10-22T04:56:30.547Z,4.00
2022-10-22T05:01:42.843Z,3.90
2022-10-22T05:04:18.825Z,3.58
2022-10-22T05:06:53.207Z,3.60
2022-10-22T05:09:32.976Z,3.67
2022-10-22T05:12:07.614Z,4.30
2022-10-22T05:14:44.103Z,4.15
2022-10-22T05:17:19.190Z,4.20
2022-10-22T05:19:53.106Z,4.00
2022-10-22T05:22:26.988Z,4.53
2022-10-22T05:25:06.127Z,4.65
2022-10-22T05:27:40.226Z,3.42
2022-10-22T05:30:14.805Z,4.73
2022-10-22T05:32:48.603Z,4.32
2022-10-22T05:35:22.808Z,4.35
2022-10-22T05:40:35.759Z,4.22
2022-10-22T05:43:09.573Z,4.15
2022-10-22T05:45:47.571Z,3.47
2022-10-22T05:48:21.428Z,4.25
2022-10-22T05:50:57.309Z,4.63
2022-10-22T05:53:31.145Z,4.80
2022-10-22T05:56:13.557Z,4.18
2022-10-22T05:58:47.406Z,4.53
2022-10-22T06:01:22.709Z,3.60
2022-10-22T06:03:59.067Z,4.18
2022-10-22T06:06:35.428Z,4.05
2022-10-22T06:09:10.438Z,3.97
2022-10-22T06:11:49.790Z,3.58
2022-10-22T06:14:23.810Z,5.28
2022-10-22T06:16:57.849Z,3.90
2022-10-22T06:19:32.343Z,3.83
2022-10-22T06:22:06.262Z,4.55
2022-10-22T06:24:41.685Z,4.13
2022-10-22T06:27:24.051Z,4.15
2022-10-22T06:29:57.915Z,4.43
2022-10-22T06:32:31.708Z,4.93
2022-10-22T06:35:05.647Z,4.10
2022-10-22T06:37:39.786Z,4.10
2022-10-22T06:40:14.691Z,4.07
2022-10-22T06:42:53.875Z,4.55
2022-10-22T06:45:27.806Z,4.00
2022-10-22T06:48:01.984Z,3.92
2022-10-22T06:50:35.824Z,3.50
2022-10-22T06:53:09.732Z,3.90
2022-10-22T06:55:43.587Z,3.70
2022-10-22T06:58:22.818Z,4.20
2022-10-22T07:00:56.752Z,3.53
2022-10-22T07:03:30.893Z,3.70
2022-10-22T07:06:07.358Z,3.70
2022-10-22T07:08:41.414Z,3.47
2022-10-22T07:11:15.925Z,3.75
2022-10-22T07:13:55.206Z,3.77
2022-10-22T07:16:32.544Z,3.40
2022-10-22T07:19:07.152Z,4.20
2022-10-22T07:21:41.565Z,3.30
2022-10-22T07:24:16.079Z,3.53
2022-10-22T07:26:50.832Z,3.10
2022-10-22T07:29:30.502Z,3.13
2022-10-22T07:32:04.471Z,3.88
2022-10-22T07:34:40.586Z,3.55
2022-10-22T07:37:17.074Z,4.15
2022-10-22T07:39:52.002Z,3.88
2022-10-22T07:52:56.028Z,4.55
2022-10-22T07:55:36.754Z,4.13
2022-10-22T08:00:40.523Z,3.70
2022-10-22T08:03:09.471Z,3.60
2022-10-22T08:50:53.580Z,2.20
2022-10-22T09:09:28.138Z,3.22
2022-10-22T09:20:07.811Z,3.22
2022-10-22T09:25:22.741Z,2.72
2022-10-22T09:28:02.536Z,2.50
2022-10-22T09:30:37.862Z,5.05
2022-10-22T09:43:45.208Z,4.05
2022-10-22T09:46:14.696Z,4.90
2022-10-22T09:51:20.594Z,4.35
2022-10-22T09:59:11.677Z,2.92
2022-10-22T10:01:45.633Z,2.15
2022-10-22T10:09:45.342Z,2.33
2022-10-22T10:12:30.658Z,2.50
2022-10-22T10:15:14.923Z,3.30
2022-10-22T10:17:50.596Z,3.53
2022-10-22T10:36:41.226Z,3.00
2022-10-22T10:44:27.730Z,2.60
2022-10-22T10:49:38.719Z,4.85
2022-10-22T11:00:39.291Z,5.25
2022-10-22T11:21:51.922Z,4.20
2022-10-22T11:26:52.801Z,3.90
2022-10-22T11:32:01.827Z,2.00
2022-10-22T11:37:07.380Z,1.40
2022-10-22T11:39:47.371Z,2.33
2022-10-22T11:42:25.863Z,1.30
2022-10-22T11:47:35.158Z,1.77
2022-10-22T11:50:26.433Z,1.50
2022-10-22T11:58:22.739Z,3.60
2022-10-22T12:03:45.691Z,3.55
2022-10-22T12:09:23.157Z,3.88
2022-10-22T12:14:44.520Z,2.92
2022-10-22T12:20:02.365Z,1.42
2022-10-22T12:22:38.409Z,1.70
2022-10-22T12:25:24.071Z,2.13
2022-10-22T12:27:58.834Z,1.90
2022-10-22T12:30:36.018Z,1.10
2022-10-22T12:33:11.278Z,1.52
2022-10-22T12:38:24.069Z,1.67
2022-10-22T12:41:05.281Z,1.08
2022-10-22T12:43:40.817Z,1.80
2022-10-22T12:46:18.246Z,1.52
2022-10-22T12:48:52.327Z,1.20
2022-10-22T12:51:26.996Z,1.45
2022-10-22T12:54:02.286Z,1.30
2022-10-22T13:01:45.586Z,3.38
2022-10-22T13:04:38.207Z,1.55
2022-10-22T13:07:22.571Z,3.42
2022-10-22T13:10:04.860Z,1.40
2022-10-22T13:12:50.330Z,1.02
2022-10-22T13:17:49.979Z,2.38
2022-10-22T13:23:03.804Z,2.70
2022-10-22T13:28:07.060Z,2.47
2022-10-22T13:30:46.287Z,3.53
2022-10-22T13:33:29.182Z,5.72
2022-10-22T13:41:26.478Z,1.45
2022-10-22T13:44:00.601Z,1.45
2022-10-22T13:46:43.645Z,1.10
2022-10-22T13:49:19.238Z,1.55
2022-10-22T13:51:53.966Z,1.25
2022-10-22T13:54:29.343Z,1.33
2022-10-22T13:57:03.458Z,1.45
2022-10-22T13:59:37.470Z,1.20
2022-10-22T14:02:17.527Z,1.33
2022-10-22T14:04:51.521Z,1.40
2022-10-22T14:07:25.468Z,1.30
2022-10-22T14:09:59.256Z,1.92
2022-10-22T14:12:33.240Z,3.70
2022-10-22T14:23:01.228Z,5.30
2022-10-22T14:25:35.133Z,1.30
2022-10-22T14:28:06.988Z,3.03
2022-10-22T14:36:00.048Z,2.45
2022-10-22T14:41:00.007Z,2.97
2022-10-22T14:48:52.031Z,3.13
2022-10-22T14:54:13.907Z,1.70
2022-10-22T14:56:47.929Z,1.60
2022-10-22T14:59:21.990Z,1.55
2022-10-22T15:01:55.907Z,1.75
2022-10-22T15:04:31.586Z,1.45
2022-10-22T15:07:05.464Z,1.92
2022-10-22T15:09:44.825Z,1.50
2022-10-22T15:12:18.687Z,1.70
2022-10-22T15:14:52.628Z,1.70
2022-10-22T15:17:26.512Z,2.22
2022-10-22T15:25:19.373Z,1.60
2022-10-22T15:27:54.941Z,1.50
2022-10-22T15:30:33.491Z,1.67
2022-10-22T15:33:07.510Z,1.30
2022-10-22T15:35:41.550Z,1.95
2022-10-22T15:38:15.619Z,1.40
2022-10-22T15:40:55.157Z,1.52
2022-10-22T15:43:29.053Z,1.67
2022-10-22T15:46:15.774Z,2.10
2022-10-22T15:48:49.836Z,1.67
2022-10-22T15:54:01.146Z,2.88
2022-10-22T16:01:44.208Z,3.47
2022-10-22T16:06:52.109Z,3.05
2022-10-22T16:09:32.368Z,2.30
2022-10-22T16:12:06.289Z,2.10
2022-10-22T16:14:43.341Z,2.30
2022-10-22T16:25:00.132Z,2.50
2022-10-22T16:35:32.839Z,1.85
2022-10-22T16:51:46.023Z,2.05
2022-10-22T16:54:20.023Z,2.42
2022-10-22T16:56:54.019Z,2.50
2022-10-22T17:15:16.244Z,4.85
2022-10-22T17:17:54.788Z,5.45
2022-10-22T17:22:57.731Z,3.83
2022-10-22T17:30:42.344Z,4.90
2022-10-22T17:35:52.135Z,3.55
2022-10-22T17:41:06.950Z,3.03
2022-10-22T17:51:24.186Z,3.97
2022-10-22T18:01:35.135Z,2.70
2022-10-22T18:04:14.811Z,6.85
2022-10-22T18:06:44.122Z,4.22
2022-10-22T18:14:32.119Z,4.05
2022-10-22T18:35:45.844Z,6.10
2022-10-22T18:40:53.371Z,8.40
2022-10-22T18:45:55.330Z,4.60
2022-10-22T18:50:57.423Z,4.43
2022-10-22T18:53:36.672Z,4.00
2022-10-22T18:56:11.748Z,4.38
2022-10-22T18:58:47.935Z,4.35
2022-10-22T19:01:22.465Z,4.32
2022-10-22T19:03:56.450Z,6.10
2022-10-22T19:06:37.110Z,4.93
2022-10-22T19:11:49.300Z,5.50
2022-10-22T19:16:51.131Z,5.20
2022-10-22T19:21:54.230Z,5.30
2022-10-22T19:29:50.255Z,5.03
2022-10-22T19:32:22.135Z,4.18
2022-10-22T19:40:07.126Z,4.30
2022-10-22T19:42:41.333Z,4.18
2022-10-22T19:45:16.272Z,4.60
2022-10-22T19:47:50.143Z,3.70
2022-10-22T19:50:24.280Z,4.30
2022-10-22T19:52:58.169Z,5.05
2022-10-22T19:55:37.559Z,4.78
2022-10-22T19:58:11.752Z,4.68
2022-10-22T20:00:45.794Z,4.43
2022-10-22T20:03:14.430Z,5.60
2022-10-22T20:05:49.182Z,4.13
2022-10-22T20:08:23.054Z,4.13
2022-10-22T20:11:02.732Z,4.25
2022-10-22T20:13:36.763Z,4.13
2022-10-22T20:16:11.165Z,4.40
2022-10-22T20:18:45.029Z,3.95
2022-10-22T20:21:21.291Z,4.55
2022-10-22T20:23:58.419Z,5.07
2022-10-22T20:26:37.642Z,4.55
2022-10-22T20:29:12.576Z,4.13
2022-10-22T20:31:46.539Z,4.57
2022-10-22T20:34:20.365Z,4.07
2022-10-22T20:36:54.430Z,4.13
2022-10-22T20:39:28.287Z,4.22
2022-10-22T20:42:07.493Z,4.63
2022-10-22T20:52:16.269Z,3.35
2022-10-22T20:54:50.220Z,4.63
2022-10-22T20:57:21.520Z,4.40
2022-10-22T21:00:00.898Z,4.55
2022-10-22T21:02:35.232Z,4.00
2022-10-22T21:05:09.151Z,4.40
2022-10-22T21:07:43.466Z,4.15
2022-10-22T21:10:18.765Z,3.90
2022-10-22T21:12:52.610Z,3.75
2022-10-22T21:15:32.524Z,3.35
2022-10-22T21:18:06.399Z,5.47
2022-10-22T21:20:40.307Z,3.38
2022-10-22T21:23:14.276Z,3.40
2022-10-22T21:25:48.061Z,3.47
2022-10-22T21:28:22.129Z,3.10
2022-10-22T21:31:01.405Z,3.30
2022-10-22T21:33:35.372Z,3.53
2022-10-22T21:36:10.027Z,3.30
2022-10-22T21:38:43.947Z,3.10
2022-10-22T21:41:18.693Z,3.20
2022-10-22T21:43:52.695Z,2.63
2022-10-22T21:46:32.796Z,3.20
2022-10-22T21:49:07.995Z,3.08
2022-10-22T21:51:41.983Z,2.78
2022-10-22T21:54:15.812Z,2.15
2022-10-22T21:56:50.135Z,2.60
2022-10-22T21:59:23.939Z,3.20
2022-10-22T22:02:05.659Z,2.83
2022-10-22T22:04:40.026Z,3.00
2022-10-22T22:07:13.947Z,2.75
2022-10-22T22:09:47.737Z,3.33
2022-10-22T22:12:22.160Z,2.40
2022-10-22T22:14:56.069Z,2.40
2022-10-22T22:17:35.283Z,3.83
2022-10-22T22:20:11.128Z,3.00
2022-10-22T22:22:45.029Z,2.78
2022-10-22T22:25:18.889Z,3.90
2022-10-22T22:27:52.745Z,2.63
2022-10-22T22:30:26.925Z,2.00
2022-10-22T22:33:06.087Z,2.15
2022-10-22T22:35:41.105Z,2.67
2022-10-22T22:38:15.031Z,2.28
2022-10-22T22:40:48.938Z,1.98
2022-10-22T22:43:22.786Z,2.45
2022-10-22T22:46:06.187Z,2.30
2022-10-22T22:48:50.438Z,2.25
2022-10-22T22:51:24.401Z,2.53
2022-10-22T22:53:58.361Z,2.15
2022-10-22T22:56:33.190Z,2.40
2022-10-22T22:59:07.251Z,2.72
2022-10-22T23:01:41.730Z,2.30
2022-10-22T23:04:24.687Z,2.65
2022-10-22T23:06:58.715Z,2.28
2022-10-22T23:09:32.500Z,2.10
2022-10-22T23:12:06.394Z,2.20
2022-10-22T23:14:40.282Z,2.13
2022-10-22T23:17:14.184Z,2.80
2022-10-22T23:19:53.347Z,2.28
2022-10-22T23:22:27.231Z,2.05
2022-10-22T23:25:01.396Z,2.60
2022-10-22T23:27:35.217Z,2.13
2022-10-22T23:30:09.112Z,2.58
2022-10-22T23:32:43.114Z,1.95
2022-10-22T23:35:22.256Z,2.58
2022-10-22T23:37:56.063Z,2.55
2022-10-22T23:40:29.864Z,2.42
2022-10-22T23:43:03.765Z,2.42
2022-10-22T23:45:39.718Z,2.40
2022-10-22T23:48:13.785Z,1.85
2022-10-22T23:53:26.845Z,2.10
2022-10-22T23:56:00.818Z,2.10
2022-10-22T23:58:34.688Z,2.50
